Time;durP1;ratioP1;P1;durP2;ratioP2;P2;SDS_P1;SDS_P2;PMS_P1;PMS_P2;Temp;Humidity;BMP_temperature;BMP_pressure;BME280_temperature;BME280_humidity;BME280_pressure;Samples;Min_cycle;Max_cycle;Signal;HPM_P1;HPM_P2
2021/12/31 00:01:24;;;;;;;21.90;7.63;;;;;;;;;;5120212;28;20020;-73
2021/12/31 00:03:49;;;;;;;17.85;6.55;;;;;;;;;;5120855;28;20012;-73
2021/12/31 00:06:15;;;;;;;17.67;6.20;;;;;;;;;;5120140;28;20012;-73
2021/12/31 00:08:40;;;;;;;21.35;6.85;;;;;;;;;;5120516;28;20023;-73
2021/12/31 00:11:05;;;;;;;22.38;7.80;;;;;;;;;;5120154;28;20008;-73
2021/12/31 00:13:31;;;;;;;15.73;4.88;;;;;;;;;;5120186;28;20035;-73
2021/12/31 00:15:56;;;;;;;16.95;6.60;;;;;;;;;;5121146;28;20019;-73
2021/12/31 00:18:21;;;;;;;21.83;7.95;;;;;;;;;;5119949;28;20008;-73
2021/12/31 00:20:47;;;;;;;18.58;6.68;;;;;;;;;;5119927;28;20008;-73
2021/12/31 00:23:15;;;;;;;22.50;6.65;;;;;;;;;;5119769;28;20008;-73
2021/12/31 00:25:42;;;;;;;18.13;6.85;;;;;;;;;;5120566;28;20019;-73
2021/12/31 00:28:09;;;;;;;19.67;7.57;;;;;;;;;;5120606;28;20023;-73
2021/12/31 00:30:35;;;;;;;22.08;7.70;;;;;;;;;;5119622;28;20015;-72
2021/12/31 00:33:02;;;;;;;21.08;7.15;;;;;;;;;;5120390;28;20024;-73
2021/12/31 00:35:31;;;;;;;19.75;7.15;;;;;;;;;;5120392;28;20020;-73
2021/12/31 00:37:57;;;;;;;15.30;5.32;;;;;;;;;;5120478;28;20032;-73
2021/12/31 00:40:23;;;;;;;16.85;6.78;;;;;;;;;;5120548;28;20012;-73
2021/12/31 00:42:49;;;;;;;15.18;6.28;;;;;;;;;;5120405;28;20004;-72
2021/12/31 00:45:17;;;;;;;18.38;6.47;;;;;;;;;;5120400;28;20036;-73
2021/12/31 00:47:43;;;;;;;19.52;6.50;;;;;;;;;;5120125;28;20020;-73
2021/12/31 00:50:10;;;;;;;16.20;5.75;;;;;;;;;;5119318;28;20042;-73
2021/12/31 00:52:36;;;;;;;13.68;5.00;;;;;;;;;;5119156;28;20024;-73
2021/12/31 00:55:02;;;;;;;15.32;5.53;;;;;;;;;;5119314;28;20035;-73
2021/12/31 00:57:28;;;;;;;13.68;5.38;;;;;;;;;;5119686;28;20016;-73
2021/12/31 00:59:53;;;;;;;16.05;5.65;;;;;;;;;;5119768;28;20020;-73
2021/12/31 01:02:21;;;;;;;13.20;5.40;;;;;;;;;;5119631;28;20018;-73
2021/12/31 01:04:46;;;;;;;14.60;4.82;;;;;;;;;;5119765;28;20015;-72
2021/12/31 01:07:12;;;;;;;12.63;4.82;;;;;;;;;;5119597;28;20083;-72
2021/12/31 01:09:37;;;;;;;15.77;5.30;;;;;;;;;;5119895;28;20016;-72
2021/12/31 01:12:05;;;;;;;12.13;4.75;;;;;;;;;;5118890;28;20016;-72
2021/12/31 01:15:20;;;;;;;18.20;5.60;;;;;;;;;;5119447;28;20071;-73
2021/12/31 01:17:21;;;;;;;12.75;5.28;;;;;;;;;;5114309;28;20059;-72
2021/12/31 01:19:46;;;;;;;10.98;4.35;;;;;;;;;;5118564;28;20012;-73
2021/12/31 01:22:23;;;;;;;14.63;5.35;;;;;;;;;;5118631;28;20027;-73
2021/12/31 01:24:48;;;;;;;12.45;5.32;;;;;;;;;;5119337;28;20008;-73
2021/12/31 01:27:14;;;;;;;9.40;4.80;;;;;;;;;;5119243;28;20016;-72
2021/12/31 01:29:40;;;;;;;12.25;5.53;;;;;;;;;;5119112;28;20019;-71
2021/12/31 01:32:06;;;;;;;10.35;4.45;;;;;;;;;;5118961;28;20080;-73
2021/12/31 01:34:32;;;;;;;11.18;4.47;;;;;;;;;;5118710;28;20030;-73
2021/12/31 01:36:59;;;;;;;12.27;4.30;;;;;;;;;;5118363;28;20036;-72
2021/12/31 01:39:28;;;;;;;9.48;4.18;;;;;;;;;;5118954;28;20004;-71
2021/12/31 01:41:57;;;;;;;8.40;4.13;;;;;;;;;;5118988;28;20024;-73
2021/12/31 01:44:26;;;;;;;10.80;3.97;;;;;;;;;;5118739;28;20023;-73
2021/12/31 01:47:01;;;;;;;7.55;3.35;;;;;;;;;;5118807;28;20028;-73
2021/12/31 01:49:34;;;;;;;9.88;3.80;;;;;;;;;;5119051;28;20046;-73
2021/12/31 01:52:00;;;;;;;;;;;;;;;;;;5119148;28;20044;-73
2021/12/31 01:54:26;;;;;;;8.32;3.28;;;;;;;;;;5119035;28;19892;-73
2021/12/31 01:56:53;;;;;;;7.13;2.70;;;;;;;;;;5118619;28;20043;-72
2021/12/31 01:59:19;;;;;;;6.68;2.75;;;;;;;;;;5118110;28;20008;-73
2021/12/31 02:01:45;;;;;;;6.82;3.05;;;;;;;;;;5118621;28;20023;-73
2021/12/31 02:04:10;;;;;;;7.35;2.95;;;;;;;;;;5118587;28;20016;-72
2021/12/31 02:06:36;;;;;;;6.75;2.90;;;;;;;;;;5135106;28;20012;-71
2021/12/31 02:09:04;;;;;;;6.85;2.75;;;;;;;;;;5118732;28;20049;-72
2021/12/31 02:11:29;;;;;;;10.02;2.92;;;;;;;;;;5119114;28;20204;-73
2021/12/31 02:13:56;;;;;;;6.38;2.83;;;;;;;;;;5118707;28;20023;-72
2021/12/31 02:16:22;;;;;;;5.00;2.25;;;;;;;;;;5118594;28;20028;-72
2021/12/31 02:18:47;;;;;;;5.75;2.65;;;;;;;;;;5118176;28;20022;-73
2021/12/31 02:21:13;;;;;;;6.30;2.33;;;;;;;;;;5118073;28;20012;-73
2021/12/31 02:23:44;;;;;;;6.32;2.22;;;;;;;;;;5118840;28;20027;-73
2021/12/31 02:26:11;;;;;;;7.45;2.17;;;;;;;;;;5117733;28;20004;-73
2021/12/31 02:28:37;;;;;;;5.70;2.13;;;;;;;;;;5117540;28;20008;-73
2021/12/31 02:31:03;;;;;;;7.07;2.38;;;;;;;;;;5118170;28;20046;-72
2021/12/31 02:33:30;;;;;;;6.82;1.88;;;;;;;;;;5117751;28;20037;-73
2021/12/31 02:35:56;;;;;;;3.72;1.65;;;;;;;;;;5118391;28;20016;-73
2021/12/31 02:38:23;;;;;;;3.72;1.85;;;;;;;;;;5118225;28;20032;-72
2021/12/31 02:40:48;;;;;;;4.35;1.70;;;;;;;;;;5117483;28;20041;-73
2021/12/31 02:43:14;;;;;;;6.75;2.30;;;;;;;;;;5118087;28;20023;-73
2021/12/31 02:45:41;;;;;;;4.25;1.60;;;;;;;;;;5118272;28;20043;-72
2021/12/31 02:48:07;;;;;;;5.90;1.85;;;;;;;;;;5118273;28;20109;-72
2021/12/31 02:50:39;;;;;;;6.25;1.90;;;;;;;;;;5117393;28;20012;-73
2021/12/31 02:53:07;;;;;;;8.45;2.00;;;;;;;;;;5117256;28;20016;-73
2021/12/31 02:55:34;;;;;;;5.57;1.70;;;;;;;;;;5117878;28;20019;-73
2021/12/31 02:58:01;;;;;;;7.03;1.73;;;;;;;;;;5118012;28;20068;-73
2021/12/31 03:00:27;;;;;;;4.63;1.40;;;;;;;;;;5118112;28;20072;-72
2021/12/31 03:02:54;;;;;;;4.75;1.58;;;;;;;;;;5118455;28;20016;-73
2021/12/31 03:05:20;;;;;;;3.90;1.60;;;;;;;;;;5117832;28;20012;-72
2021/12/31 03:07:47;;;;;;;2.72;1.40;;;;;;;;;;5118010;28;20012;-73
2021/12/31 03:10:17;;;;;;;3.03;1.17;;;;;;;;;;5117820;28;20023;-73
2021/12/31 03:12:43;;;;;;;5.25;1.40;;;;;;;;;;5117827;28;20042;-73
2021/12/31 03:15:09;;;;;;;2.25;1.10;;;;;;;;;;5134176;28;20011;-73
2021/12/31 03:17:35;;;;;;;2.42;1.10;;;;;;;;;;5117156;28;20047;-74
2021/12/31 03:20:10;;;;;;;2.05;1.05;;;;;;;;;;5117060;28;20012;-73
2021/12/31 03:22:37;;;;;;;3.13;1.20;;;;;;;;;;5117944;28;20016;-73
2021/12/31 03:25:03;;;;;;;3.53;1.08;;;;;;;;;;5118248;28;20245;-73
2021/12/31 03:27:28;;;;;;;3.03;1.00;;;;;;;;;;5118182;28;20106;-73
2021/12/31 03:29:54;;;;;;;2.88;1.40;;;;;;;;;;5117565;28;20031;-73
2021/12/31 03:32:19;;;;;;;2.50;1.38;;;;;;;;;;5118015;28;20016;-73
2021/12/31 03:34:44;;;;;;;3.47;1.45;;;;;;;;;;5117628;28;20012;-72
2021/12/31 03:37:10;;;;;;;3.22;1.30;;;;;;;;;;5116599;28;20167;-72
2021/12/31 03:39:35;;;;;;;3.47;1.20;;;;;;;;;;5118136;28;20046;-73
2021/12/31 03:42:00;;;;;;;5.25;1.80;;;;;;;;;;5121350;28;20016;-72
2021/12/31 03:44:26;;;;;;;3.22;1.60;;;;;;;;;;5121551;28;20016;-72
2021/12/31 03:46:51;;;;;;;3.05;1.40;;;;;;;;;;5121493;28;20095;-73
2021/12/31 03:49:17;;;;;;;3.80;1.67;;;;;;;;;;5121766;28;20019;-72
2021/12/31 03:51:42;;;;;;;3.60;1.80;;;;;;;;;;5121202;28;20012;-73
2021/12/31 03:54:07;;;;;;;4.47;1.65;;;;;;;;;;5121030;28;20008;-72
2021/12/31 03:56:33;;;;;;;3.55;1.45;;;;;;;;;;5121104;28;20016;-72
2021/12/31 03:58:59;;;;;;;4.28;1.45;;;;;;;;;;5120385;28;20015;-72
2021/12/31 04:01:26;;;;;;;3.20;1.40;;;;;;;;;;5121038;28;20004;-73
2021/12/31 04:03:54;;;;;;;2.80;1.30;;;;;;;;;;5121040;28;20016;-72
2021/12/31 04:06:21;;;;;;;2.97;1.63;;;;;;;;;;5121411;28;20012;-72
2021/12/31 04:08:47;;;;;;;2.97;1.60;;;;;;;;;;5120340;28;20008;-72
2021/12/31 04:11:13;;;;;;;2.50;1.60;;;;;;;;;;5120946;28;20148;-73
2021/12/31 04:13:39;;;;;;;4.65;1.30;;;;;;;;;;5121037;28;20049;-73
2021/12/31 04:16:05;;;;;;;4.15;1.33;;;;;;;;;;5120731;28;20008;-73
2021/12/31 04:18:30;;;;;;;6.18;1.40;;;;;;;;;;5120717;28;20023;-72
2021/12/31 04:20:57;;;;;;;3.33;1.45;;;;;;;;;;5120672;28;20073;-73
2021/12/31 04:23:28;;;;;;;2.85;1.10;;;;;;;;;;5120506;28;20028;-72
2021/12/31 04:25:55;;;;;;;2.63;1.05;;;;;;;;;;5120542;28;20071;-72
2021/12/31 04:28:20;;;;;;;1.50;1.00;;;;;;;;;;5119925;28;20008;-72
2021/12/31 04:30:46;;;;;;;1.52;0.95;;;;;;;;;;5136817;28;20008;-73
2021/12/31 04:33:11;;;;;;;1.00;0.90;;;;;;;;;;5120410;28;20032;-72
2021/12/31 04:35:36;;;;;;;1.55;1.00;;;;;;;;;;5120554;28;20012;-73
2021/12/31 04:38:02;;;;;;;1.63;0.98;;;;;;;;;;5120233;28;20083;-73
2021/12/31 04:40:27;;;;;;;1.55;0.77;;;;;;;;;;5120164;28;20071;-73
2021/12/31 04:42:53;;;;;;;3.15;1.20;;;;;;;;;;5119702;28;20020;-73
2021/12/31 04:45:19;;;;;;;1.50;0.85;;;;;;;;;;5119435;28;20004;-72
2021/12/31 04:47:45;;;;;;;2.05;0.60;;;;;;;;;;5119479;28;20122;-73
2021/12/31 04:50:11;;;;;;;2.40;0.88;;;;;;;;;;5120466;28;20016;-72
2021/12/31 04:52:37;;;;;;;1.38;0.82;;;;;;;;;;5120107;28;20018;-72
2021/12/31 04:55:04;;;;;;;2.17;0.82;;;;;;;;;;5120305;28;20039;-73
2021/12/31 04:57:29;;;;;;;2.70;0.80;;;;;;;;;;5119965;28;20016;-73
2021/12/31 04:59:55;;;;;;;2.97;0.75;;;;;;;;;;5119848;28;20049;-72
2021/12/31 05:02:20;;;;;;;1.98;0.90;;;;;;;;;;5119117;28;20103;-72
2021/12/31 05:04:46;;;;;;;2.13;0.75;;;;;;;;;;5120073;28;20008;-72
2021/12/31 05:07:11;;;;;;;1.30;0.80;;;;;;;;;;5119919;28;20096;-73
2021/12/31 05:09:37;;;;;;;2.38;0.98;;;;;;;;;;5118979;28;20008;-72
2021/12/31 05:12:04;;;;;;;1.42;0.88;;;;;;;;;;5119376;28;20010;-73
2021/12/31 05:14:30;;;;;;;1.48;0.70;;;;;;;;;;5119476;28;20015;-73
2021/12/31 05:16:56;;;;;;;1.25;0.80;;;;;;;;;;5119254;28;20032;-72
2021/12/31 05:19:22;;;;;;;3.63;0.80;;;;;;;;;;5119512;28;20019;-73
2021/12/31 05:21:47;;;;;;;2.50;0.80;;;;;;;;;;5119605;28;20045;-73
2021/12/31 05:24:14;;;;;;;2.00;1.13;;;;;;;;;;5118676;28;20000;-72
2021/12/31 05:26:40;;;;;;;2.70;0.70;;;;;;;;;;5119330;28;20011;-73
2021/12/31 05:29:05;;;;;;;1.17;0.77;;;;;;;;;;5118638;28;20032;-73
2021/12/31 05:31:30;;;;;;;1.27;0.60;;;;;;;;;;5119497;28;20020;-73
2021/12/31 05:33:56;;;;;;;1.17;0.70;;;;;;;;;;5119309;28;20086;-73
2021/12/31 05:36:21;;;;;;;1.42;0.65;;;;;;;;;;5118897;28;20020;-72
2021/12/31 05:38:46;;;;;;;2.05;0.68;;;;;;;;;;5118757;28;20024;-73
2021/12/31 05:41:12;;;;;;;3.63;1.25;;;;;;;;;;5119131;28;20122;-73
2021/12/31 05:43:38;;;;;;;0.90;0.50;;;;;;;;;;5118477;28;20016;-72
2021/12/31 05:46:03;;;;;;;3.88;0.90;;;;;;;;;;5118988;28;20019;-72
2021/12/31 05:48:29;;;;;;;1.38;0.70;;;;;;;;;;5119432;28;20024;-73
2021/12/31 05:50:55;;;;;;;1.92;0.80;;;;;;;;;;5118894;28;20008;-72
2021/12/31 05:53:20;;;;;;;2.25;0.68;;;;;;;;;;5119264;28;20039;-73
2021/12/31 05:55:46;;;;;;;2.45;0.80;;;;;;;;;;5118901;28;20063;-73
2021/12/31 05:58:11;;;;;;;3.60;0.85;;;;;;;;;;5118434;28;20039;-73
2021/12/31 06:00:36;;;;;;;1.23;0.77;;;;;;;;;;5118175;28;20019;-72
2021/12/31 06:03:02;;;;;;;2.15;0.93;;;;;;;;;;5118181;28;20020;-73
2021/12/31 06:05:27;;;;;;;2.97;0.80;;;;;;;;;;5119014;28;20004;-72
2021/12/31 06:07:55;;;;;;;3.35;0.70;;;;;;;;;;5117968;28;20012;-72
2021/12/31 06:10:22;;;;;;;1.30;0.68;;;;;;;;;;5117259;28;20008;-72
2021/12/31 06:12:49;;;;;;;1.33;0.70;;;;;;;;;;5117172;28;20045;-73
2021/12/31 06:15:18;;;;;;;2.33;0.60;;;;;;;;;;5117699;28;20016;-73
2021/12/31 06:17:43;;;;;;;2.25;0.75;;;;;;;;;;5117970;28;20076;-73
2021/12/31 06:20:10;;;;;;;2.65;0.90;;;;;;;;;;5118248;28;20011;-73
2021/12/31 06:22:35;;;;;;;1.38;0.70;;;;;;;;;;5117640;28;20110;-73
2021/12/31 06:25:00;;;;;;;3.00;0.98;;;;;;;;;;5118703;28;20012;-73
2021/12/31 06:27:26;;;;;;;1.42;0.68;;;;;;;;;;5117863;28;20104;-73
2021/12/31 06:29:51;;;;;;;1.27;0.60;;;;;;;;;;5118406;28;20020;-73
2021/12/31 06:32:16;;;;;;;4.60;1.00;;;;;;;;;;5118509;28;20039;-73
2021/12/31 06:34:42;;;;;;;2.42;0.90;;;;;;;;;;5118263;28;20040;-73
2021/12/31 06:37:07;;;;;;;1.60;0.60;;;;;;;;;;5117787;28;20028;-73
2021/12/31 06:39:35;;;;;;;1.58;0.65;;;;;;;;;;5118225;28;20034;-73
2021/12/31 06:42:03;;;;;;;2.58;0.73;;;;;;;;;;5118138;28;20023;-73
2021/12/31 06:44:32;;;;;;;85.38;67.38;;;;;;;;;;5118086;28;20011;-73
2021/12/31 06:46:57;;;;;;;10.82;7.05;;;;;;;;;;5118286;28;20050;-73
2021/12/31 06:49:22;;;;;;;1.63;0.80;;;;;;;;;;5118232;28;20071;-73
2021/12/31 06:51:48;;;;;;;10.70;8.85;;;;;;;;;;5118152;28;20016;-73
2021/12/31 06:54:13;;;;;;;1.58;0.60;;;;;;;;;;5118261;28;20038;-73
2021/12/31 06:56:38;;;;;;;1.88;0.77;;;;;;;;;;5117899;28;20043;-74
2021/12/31 06:59:04;;;;;;;2.53;0.80;;;;;;;;;;5118524;28;20064;-74
2021/12/31 07:01:29;;;;;;;1.10;0.70;;;;;;;;;;5118069;28;20030;-73
2021/12/31 07:03:54;;;;;;;1.85;0.65;;;;;;;;;;5133635;28;20008;-73
2021/12/31 07:06:20;;;;;;;0.90;0.50;;;;;;;;;;5117403;28;20242;-73
2021/12/31 07:08:45;;;;;;;1.83;0.88;;;;;;;;;;5117846;28;20084;-73
2021/12/31 07:11:11;;;;;;;6.00;1.40;;;;;;;;;;5118229;28;20004;-73
2021/12/31 07:13:37;;;;;;;3.13;0.77;;;;;;;;;;5118682;28;20022;-73
2021/12/31 07:16:03;;;;;;;15.50;11.85;;;;;;;;;;5121520;28;20028;-73
2021/12/31 07:18:29;;;;;;;44.28;24.50;;;;;;;;;;5121459;28;20020;-73
2021/12/31 07:20:54;;;;;;;3.28;1.08;;;;;;;;;;5122036;28;20065;-73
2021/12/31 07:23:21;;;;;;;0.95;0.60;;;;;;;;;;5121748;28;20042;-73
2021/12/31 07:25:47;;;;;;;3.45;1.20;;;;;;;;;;5138058;28;20012;-73
2021/12/31 07:28:14;;;;;;;7.50;5.25;;;;;;;;;;5121561;28;20079;-73
2021/12/31 07:30:40;;;;;;;1.48;0.80;;;;;;;;;;5121653;28;20067;-73
2021/12/31 07:33:14;;;;;;;3.72;2.85;;;;;;;;;;5121912;28;20031;-73
2021/12/31 07:35:39;;;;;;;65.82;30.50;;;;;;;;;;5121915;28;20012;-73
2021/12/31 07:38:04;;;;;;;3.72;1.05;;;;;;;;;;5121339;28;20035;-73
2021/12/31 07:40:41;;;;;;;1.98;0.57;;;;;;;;;;5121472;28;20046;-73
2021/12/31 07:43:08;;;;;;;1.00;0.60;;;;;;;;;;5121710;28;20027;-73
2021/12/31 07:45:34;;;;;;;4.35;1.05;;;;;;;;;;5121224;28;20023;-74
2021/12/31 07:48:00;;;;;;;2.75;0.70;;;;;;;;;;5121439;28;20080;-74
2021/12/31 07:50:25;;;;;;;0.88;0.70;;;;;;;;;;5120902;28;20007;-74
2021/12/31 07:52:51;;;;;;;2.95;1.08;;;;;;;;;;5121602;28;20024;-74
2021/12/31 07:55:19;;;;;;;2.60;0.77;;;;;;;;;;5120739;28;20071;-73
2021/12/31 07:57:44;;;;;;;1.95;0.70;;;;;;;;;;5121258;28;20027;-73
2021/12/31 08:00:10;;;;;;;3.10;0.73;;;;;;;;;;5121639;28;20016;-73
2021/12/31 08:02:35;;;;;;;0.98;0.60;;;;;;;;;;5121212;28;20020;-74
2021/12/31 08:05:01;;;;;;;2.05;0.80;;;;;;;;;;5121617;28;20018;-73
2021/12/31 08:07:27;;;;;;;2.28;0.75;;;;;;;;;;5121281;28;20028;-73
2021/12/31 08:09:52;;;;;;;2.53;0.60;;;;;;;;;;5120672;28;20016;-73
2021/12/31 08:12:17;;;;;;;1.45;0.55;;;;;;;;;;5120551;28;20020;-74
2021/12/31 08:14:43;;;;;;;3.30;0.80;;;;;;;;;;5121147;28;20019;-73
2021/12/31 08:17:08;;;;;;;1.35;0.80;;;;;;;;;;5121384;28;20035;-73
2021/12/31 08:19:33;;;;;;;1.23;0.60;;;;;;;;;;5121196;28;20036;-73
2021/12/31 08:21:59;;;;;;;2.05;0.68;;;;;;;;;;5121202;28;20020;-73
2021/12/31 08:24:24;;;;;;;4.18;1.00;;;;;;;;;;5121211;28;20019;-73
2021/12/31 08:26:49;;;;;;;1.17;0.90;;;;;;;;;;5120482;28;20040;-74
2021/12/31 08:29:15;;;;;;;1.95;0.70;;;;;;;;;;5120921;28;20012;-73
2021/12/31 08:31:41;;;;;;;2.38;0.70;;;;;;;;;;5120821;28;20046;-73
2021/12/31 08:34:10;;;;;;;2.10;0.90;;;;;;;;;;5120335;28;20012;-73
2021/12/31 08:36:36;;;;;;;2.25;0.90;;;;;;;;;;5120579;28;20114;-74
2021/12/31 08:39:07;;;;;;;4.20;0.77;;;;;;;;;;5120894;28;20012;-73
2021/12/31 08:41:34;;;;;;;4.82;0.98;;;;;;;;;;5120899;28;20027;-74
2021/12/31 08:43:59;;;;;;;2.35;1.23;;;;;;;;;;5120283;28;20035;-74
2021/12/31 08:46:27;;;;;;;2.20;0.85;;;;;;;;;;5120972;28;20037;-73
2021/12/31 08:48:53;;;;;;;4.40;0.80;;;;;;;;;;5120687;28;20091;-73
2021/12/31 08:51:19;;;;;;;3.67;1.17;;;;;;;;;;5120809;28;20012;-74
2021/12/31 08:53:44;;;;;;;1.75;0.73;;;;;;;;;;5120862;28;20016;-74
2021/12/31 08:56:10;;;;;;;4.00;1.02;;;;;;;;;;5120805;28;20067;-73
2021/12/31 08:58:35;;;;;;;1.65;0.82;;;;;;;;;;5120797;28;20063;-73
2021/12/31 09:01:01;;;;;;;2.90;0.90;;;;;;;;;;5120719;28;20016;-73
2021/12/31 09:03:26;;;;;;;3.10;0.98;;;;;;;;;;5120197;28;20015;-73
2021/12/31 09:05:52;;;;;;;2.13;0.93;;;;;;;;;;5120679;28;20027;-73
2021/12/31 09:08:17;;;;;;;1.48;0.63;;;;;;;;;;5120651;28;20027;-73
2021/12/31 09:10:43;;;;;;;1.60;0.85;;;;;;;;;;5120280;28;20012;-73
2021/12/31 09:13:08;;;;;;;3.45;1.23;;;;;;;;;;5120018;28;20016;-73
2021/12/31 09:15:34;;;;;;;2.13;0.68;;;;;;;;;;5120316;28;20026;-73
2021/12/31 09:17:59;;;;;;;3.65;0.90;;;;;;;;;;5120116;28;20015;-73
2021/12/31 09:20:25;;;;;;;2.25;0.68;;;;;;;;;;5120350;28;20071;-73
2021/12/31 09:22:51;;;;;;;1.90;1.00;;;;;;;;;;5136737;28;20027;-74
2021/12/31 09:25:16;;;;;;;2.17;1.00;;;;;;;;;;5120057;28;20012;-74
2021/12/31 09:27:42;;;;;;;3.17;0.90;;;;;;;;;;5120271;28;20031;-74
2021/12/31 09:30:09;;;;;;;2.78;1.10;;;;;;;;;;5119997;28;20019;-73
2021/12/31 09:32:34;;;;;;;2.75;0.90;;;;;;;;;;5119863;28;20027;-74
2021/12/31 09:35:00;;;;;;;2.65;1.02;;;;;;;;;;5119403;28;20084;-73
2021/12/31 09:37:25;;;;;;;1.83;1.10;;;;;;;;;;5118797;28;20038;-73
2021/12/31 09:39:51;;;;;;;3.25;0.80;;;;;;;;;;5120016;28;20009;-73
2021/12/31 09:42:16;;;;;;;1.17;0.68;;;;;;;;;;5119948;28;20051;-74
2021/12/31 09:44:46;;;;;;;1.58;0.80;;;;;;;;;;5119725;28;20020;-74
2021/12/31 09:47:13;;;;;;;0.85;0.60;;;;;;;;;;5119875;28;20023;-73
2021/12/31 09:49:39;;;;;;;0.88;0.50;;;;;;;;;;5119667;28;20038;-73
2021/12/31 09:52:11;;;;;;;1.80;0.68;;;;;;;;;;5119661;28;20019;-74
2021/12/31 09:54:47;;;;;;;1.63;0.70;;;;;;;;;;5118722;28;20019;-74
2021/12/31 09:57:18;;;;;;;2.72;0.90;;;;;;;;;;5118682;28;20012;-74
2021/12/31 09:59:46;;;;;;;1.77;0.60;;;;;;;;;;5119467;28;20058;-74
2021/12/31 10:02:12;;;;;;;3.25;1.60;;;;;;;;;;5119494;28;20019;-74
2021/12/31 10:04:56;;;;;;;3.60;1.60;;;;;;;;;;5118468;28;20079;-74
2021/12/31 10:07:23;;;;;;;2.70;0.93;;;;;;;;;;5118546;28;20027;-73
2021/12/31 10:10:27;;;;;;;2.00;0.70;;;;;;;;;;5119302;28;20012;-73
2021/12/31 10:12:59;;;;;;;1.45;0.65;;;;;;;;;;5117840;28;20039;-74
2021/12/31 10:15:25;;;;;;;1.38;0.70;;;;;;;;;;5119058;28;20019;-73
2021/12/31 10:17:52;;;;;;;1.58;1.08;;;;;;;;;;5118970;28;20076;-74
2021/12/31 10:20:18;;;;;;;1.08;0.65;;;;;;;;;;5118294;28;20019;-73
2021/12/31 10:22:45;;;;;;;1.63;0.65;;;;;;;;;;5119275;28;20019;-74
2021/12/31 10:25:22;;;;;;;3.60;0.95;;;;;;;;;;5119328;28;20016;-73
2021/12/31 10:27:50;;;;;;;3.13;0.80;;;;;;;;;;5118795;28;20015;-74
2021/12/31 10:30:22;;;;;;;1.65;0.95;;;;;;;;;;5118830;28;20016;-74
2021/12/31 10:32:48;;;;;;;1.40;0.70;;;;;;;;;;5119169;28;20046;-74
2021/12/31 10:35:20;;;;;;;1.98;0.80;;;;;;;;;;5119003;28;20068;-74
2021/12/31 10:38:02;;;;;;;2.20;0.93;;;;;;;;;;5118627;28;20028;-74
2021/12/31 10:40:39;;;;;;;4.18;1.05;;;;;;;;;;5118978;28;20008;-73
2021/12/31 10:43:23;;;;;;;3.25;1.25;;;;;;;;;;5119159;28;20016;-74
2021/12/31 10:46:10;;;;;;;3.53;1.00;;;;;;;;;;5118935;28;20090;-74
2021/12/31 10:48:43;;;;;;;3.35;0.90;;;;;;;;;;5097428;28;20115;-74
2021/12/31 10:51:12;;;;;;;2.45;1.02;;;;;;;;;;5097863;28;20054;-74
2021/12/31 10:53:38;;;;;;;4.20;1.10;;;;;;;;;;5098355;28;20012;-74
2021/12/31 10:56:06;;;;;;;2.53;1.00;;;;;;;;;;5098567;28;20027;-74
2021/12/31 10:58:32;;;;;;;1.90;1.30;;;;;;;;;;5098519;28;20031;-74
2021/12/31 11:00:59;;;;;;;3.15;1.20;;;;;;;;;;5098504;28;20017;-73
2021/12/31 11:03:25;;;;;;;2.03;1.35;;;;;;;;;;5097503;28;20016;-74
2021/12/31 11:05:52;;;;;;;3.67;1.20;;;;;;;;;;5098286;28;20009;-74
2021/12/31 11:08:19;;;;;;;2.72;1.20;;;;;;;;;;5097778;28;20092;-73
2021/12/31 11:10:44;;;;;;;2.30;1.00;;;;;;;;;;5098093;28;20013;-74
2021/12/31 11:13:17;;;;;;;1.88;1.00;;;;;;;;;;5098278;28;20039;-74
2021/12/31 11:15:44;;;;;;;6.55;1.50;;;;;;;;;;5098427;28;20017;-74
2021/12/31 11:18:11;;;;;;;2.58;1.00;;;;;;;;;;5098150;28;20025;-75
2021/12/31 11:20:37;;;;;;;2.67;0.98;;;;;;;;;;5097716;28;20084;-74
2021/12/31 11:23:03;;;;;;;3.58;1.35;;;;;;;;;;5098451;28;20020;-74
2021/12/31 11:25:29;;;;;;;1.67;1.00;;;;;;;;;;5098290;28;20091;-74
2021/12/31 11:27:56;;;;;;;3.40;1.25;;;;;;;;;;5098143;28;20087;-74
2021/12/31 11:30:37;;;;;;;5.07;1.40;;;;;;;;;;5097432;28;20039;-74
2021/12/31 11:33:17;;;;;;;2.72;1.20;;;;;;;;;;5097415;28;20050;-75
2021/12/31 11:36:11;;;;;;;1.67;0.90;;;;;;;;;;5097542;28;20043;-74
2021/12/31 11:38:39;;;;;;;2.75;1.15;;;;;;;;;;5096835;28;20040;-74
2021/12/31 11:41:08;;;;;;;3.97;1.42;;;;;;;;;;5097942;28;20015;-75
2021/12/31 11:43:37;;;;;;;2.28;0.85;;;;;;;;;;5097276;28;20017;-75
2021/12/31 11:46:08;;;;;;;2.70;1.50;;;;;;;;;;5097499;28;20021;-74
2021/12/31 11:48:49;;;;;;;1.67;0.93;;;;;;;;;;5098023;28;20024;-75
2021/12/31 11:51:28;;;;;;;2.30;1.00;;;;;;;;;;5097748;28;20013;-74
2021/12/31 11:53:59;;;;;;;2.13;1.05;;;;;;;;;;5096993;28;20008;-75
2021/12/31 11:56:37;;;;;;;3.17;1.10;;;;;;;;;;5097601;28;20013;-73
2021/12/31 11:59:14;;;;;;;2.95;1.00;;;;;;;;;;5097820;28;20075;-74
2021/12/31 12:01:52;;;;;;;3.00;1.55;;;;;;;;;;5099926;28;20013;-75
2021/12/31 12:04:21;;;;;;;2.85;0.85;;;;;;;;;;5101610;28;20012;-75
2021/12/31 12:07:04;;;;;;;4.32;1.33;;;;;;;;;;5101437;28;20030;-74
2021/12/31 12:09:35;;;;;;;2.47;1.20;;;;;;;;;;5101378;28;20024;-74
2021/12/31 12:12:05;;;;;;;2.63;1.00;;;;;;;;;;5101349;28;20030;-75
2021/12/31 12:14:43;;;;;;;2.00;1.23;;;;;;;;;;5101357;28;20199;-74
2021/12/31 12:17:10;;;;;;;6.13;1.45;;;;;;;;;;5100594;28;20013;-74
2021/12/31 12:19:50;;;;;;;2.25;1.05;;;;;;;;;;5101101;28;20012;-73
2021/12/31 12:22:33;;;;;;;3.05;1.23;;;;;;;;;;5100114;28;20017;-74
2021/12/31 12:24:58;;;;;;;4.85;2.60;;;;;;;;;;5100873;28;20058;-73
2021/12/31 12:27:25;;;;;;;3.92;1.65;;;;;;;;;;5100459;28;20020;-74
2021/12/31 12:29:52;;;;;;;3.63;1.55;;;;;;;;;;5100632;28;20035;-74
2021/12/31 12:32:29;;;;;;;8.07;1.67;;;;;;;;;;5100093;28;20044;-74
2021/12/31 12:34:55;;;;;;;5.15;1.60;;;;;;;;;;5100911;28;20009;-74
2021/12/31 12:37:30;;;;;;;3.30;2.13;;;;;;;;;;5100175;28;20020;-74
2021/12/31 12:40:03;;;;;;;4.43;1.60;;;;;;;;;;5100812;28;20024;-73
2021/12/31 12:42:29;;;;;;;4.28;1.60;;;;;;;;;;5100653;28;20013;-73
2021/12/31 12:45:14;;;;;;;3.55;1.75;;;;;;;;;;5100396;28;20032;-74
2021/12/31 12:47:40;;;;;;;4.93;1.70;;;;;;;;;;5100330;28;20031;-73
2021/12/31 12:50:09;;;;;;;4.30;1.70;;;;;;;;;;5100622;28;20009;-73
2021/12/31 12:52:35;;;;;;;6.50;3.53;;;;;;;;;;5100642;28;20021;-73
2021/12/31 12:55:14;;;;;;;4.57;2.65;;;;;;;;;;5099450;28;20274;-73
2021/12/31 12:57:41;;;;;;;4.85;3.35;;;;;;;;;;5099793;28;20028;-74
2021/12/31 13:00:09;;;;;;;5.40;1.75;;;;;;;;;;5099220;28;20012;-74
2021/12/31 13:02:45;;;;;;;4.05;2.08;;;;;;;;;;5099549;28;20012;-73
2021/12/31 13:05:14;;;;;;;7.65;4.18;;;;;;;;;;5099100;28;20016;-74
2021/12/31 13:07:52;;;;;;;4.22;1.80;;;;;;;;;;5098847;28;20028;-74
2021/12/31 13:10:18;;;;;;;6.38;4.10;;;;;;;;;;5099449;28;20009;-74
2021/12/31 13:12:44;;;;;;;3.33;1.60;;;;;;;;;;5098579;28;20016;-74
2021/12/31 13:15:09;;;;;;;2.53;1.60;;;;;;;;;;5099676;28;20016;-74
2021/12/31 13:17:36;;;;;;;8.27;4.22;;;;;;;;;;5099684;28;20020;-74
2021/12/31 13:20:11;;;;;;;10.15;5.57;;;;;;;;;;5099599;28;20035;-75
2021/12/31 13:22:38;;;;;;;7.70;4.35;;;;;;;;;;5099175;28;20023;-75
2021/12/31 13:25:05;;;;;;;6.20;3.40;;;;;;;;;;5098887;28;20009;-74
2021/12/31 13:27:32;;;;;;;3.97;2.30;;;;;;;;;;5099058;28;20036;-74
2021/12/31 13:30:07;;;;;;;3.00;1.80;;;;;;;;;;5098458;28;20005;-74
2021/12/31 13:32:40;;;;;;;5.72;1.90;;;;;;;;;;5099468;28;20028;-74
2021/12/31 13:35:07;;;;;;;2.60;1.38;;;;;;;;;;5098495;28;20009;-74
2021/12/31 13:37:35;;;;;;;3.47;1.60;;;;;;;;;;5098345;28;20032;-74
2021/12/31 13:40:04;;;;;;;3.03;1.23;;;;;;;;;;5099189;28;20013;-74
2021/12/31 13:42:29;;;;;;;2.58;1.67;;;;;;;;;;5098591;28;20050;-74
2021/12/31 13:44:55;;;;;;;3.42;2.00;;;;;;;;;;5098534;28;20013;-74
2021/12/31 13:47:21;;;;;;;2.75;1.90;;;;;;;;;;5098386;28;20020;-74
2021/12/31 13:49:55;;;;;;;3.38;2.10;;;;;;;;;;5099158;28;20008;-74
2021/12/31 13:52:20;;;;;;;3.58;2.30;;;;;;;;;;5098990;28;20012;-75
2021/12/31 13:54:47;;;;;;;4.15;1.83;;;;;;;;;;5098572;28;20000;-74
2021/12/31 13:57:32;;;;;;;3.30;1.95;;;;;;;;;;5098391;28;20016;-74
2021/12/31 14:00:06;;;;;;;3.35;2.00;;;;;;;;;;5098629;28;20015;-73
2021/12/31 14:02:31;;;;;;;3.63;2.20;;;;;;;;;;5098845;28;20035;-74
2021/12/31 14:04:57;;;;;;;4.82;2.10;;;;;;;;;;5098479;28;20012;-74
2021/12/31 14:07:30;;;;;;;3.00;1.95;;;;;;;;;;5098716;28;20032;-75
2021/12/31 14:10:01;;;;;;;2.30;1.55;;;;;;;;;;5098490;28;20023;-74
2021/12/31 14:12:27;;;;;;;2.45;1.58;;;;;;;;;;5098302;28;20023;-75
2021/12/31 14:14:53;;;;;;;2.85;1.40;;;;;;;;;;5098610;28;20008;-74
2021/12/31 14:17:19;;;;;;;1.48;1.20;;;;;;;;;;5097918;28;20016;-74
2021/12/31 14:19:44;;;;;;;3.03;1.60;;;;;;;;;;5098542;28;20009;-74
2021/12/31 14:22:11;;;;;;;3.35;1.92;;;;;;;;;;5098424;28;20075;-74
2021/12/31 14:24:38;;;;;;;3.58;2.03;;;;;;;;;;5097916;28;20015;-75
2021/12/31 14:27:06;;;;;;;4.00;2.00;;;;;;;;;;5097862;28;20016;-74
2021/12/31 14:29:33;;;;;;;4.15;2.10;;;;;;;;;;5098352;28;20031;-74
2021/12/31 14:32:05;;;;;;;3.63;2.15;;;;;;;;;;5098005;28;20031;-74
2021/12/31 14:34:32;;;;;;;3.78;1.70;;;;;;;;;;5098324;28;20036;-74
2021/12/31 14:37:05;;;;;;;2.10;1.20;;;;;;;;;;5097934;28;20055;-74
2021/12/31 14:39:34;;;;;;;2.78;1.50;;;;;;;;;;5098482;28;20043;-74
2021/12/31 14:42:01;;;;;;;3.63;1.52;;;;;;;;;;5098427;28;20017;-75
2021/12/31 14:44:26;;;;;;;3.17;1.23;;;;;;;;;;5097649;28;20020;-74